createdAt,value
2017-11-22T00:00:56.471Z,92.30
2017-11-22T00:03:24.010Z,92.20
2017-11-22T00:05:51.524Z,92.10
2017-11-22T00:08:19.064Z,92.70
2017-11-22T00:10:46.629Z,92.60
2017-11-22T00:13:14.152Z,92.00
2017-11-22T00:15:41.679Z,92.30
2017-11-22T00:18:10.034Z,92.20
2017-11-22T00:20:37.568Z,92.10
2017-11-22T00:23:05.097Z,91.90
2017-11-22T00:25:33.421Z,91.60
2017-11-22T00:28:02.155Z,91.50
2017-11-22T00:30:31.151Z,90.80
2017-11-22T00:32:59.521Z,90.70
2017-11-22T00:35:27.031Z,90.60
2017-11-22T00:37:54.554Z,90.00
2017-11-22T00:40:22.166Z,90.00
2017-11-22T00:42:49.690Z,90.00
2017-11-22T00:45:17.984Z,89.80
2017-11-22T00:47:45.536Z,89.60
2017-11-22T00:50:13.871Z,89.50
2017-11-22T00:52:41.443Z,89.90
2017-11-22T00:55:08.982Z,90.40
2017-11-22T00:57:36.560Z,92.70
2017-11-22T01:00:04.066Z,92.40
2017-11-22T01:02:31.564Z,92.60
2017-11-22T01:04:59.052Z,92.10
2017-11-22T01:07:27.064Z,93.20
2017-11-22T01:09:54.588Z,93.80
2017-11-22T01:12:22.089Z,93.20
2017-11-22T01:14:49.600Z,92.60
2017-11-22T01:17:17.125Z,93.20
2017-11-22T01:19:44.590Z,92.60
2017-11-22T01:22:12.064Z,92.50
2017-11-22T01:24:39.568Z,92.30
2017-11-22T01:27:07.040Z,92.30
2017-11-22T01:29:34.549Z,92.10
2017-11-22T01:32:02.085Z,92.50
2017-11-22T01:34:29.632Z,92.10
2017-11-22T01:36:57.161Z,91.70
2017-11-22T01:39:24.728Z,91.40
2017-11-22T01:41:52.228Z,91.80
2017-11-22T01:44:19.763Z,91.80
2017-11-22T01:46:47.248Z,91.20
2017-11-22T01:49:14.755Z,91.70
2017-11-22T01:51:42.283Z,92.30
2017-11-22T01:54:09.764Z,92.20
2017-11-22T01:56:37.295Z,91.60
2017-11-22T01:59:04.813Z,91.50
2017-11-22T02:01:33.167Z,91.00
2017-11-22T02:04:00.682Z,90.90
2017-11-22T02:06:28.198Z,91.40
2017-11-22T02:08:55.756Z,91.60
2017-11-22T02:11:23.301Z,91.70
2017-11-22T02:13:50.864Z,92.30
2017-11-22T02:16:18.416Z,91.30
2017-11-22T02:18:45.921Z,91.20
2017-11-22T02:21:13.489Z,93.10
2017-11-22T02:23:41.065Z,92.90
2017-11-22T02:26:08.594Z,93.70
2017-11-22T02:28:36.112Z,92.60
2017-11-22T02:31:03.672Z,93.70
2017-11-22T02:33:31.190Z,93.70
2017-11-22T02:35:58.741Z,93.90
2017-11-22T02:38:26.336Z,93.10
2017-11-22T02:40:53.876Z,93.00
2017-11-22T02:43:21.411Z,91.50
2017-11-22T02:45:48.936Z,90.80
2017-11-22T02:48:16.487Z,91.20
2017-11-22T02:50:44.014Z,90.60
2017-11-22T02:53:11.549Z,90.10
2017-11-22T02:55:39.114Z,90.30
2017-11-22T02:58:07.436Z,90.70
2017-11-22T03:00:34.936Z,90.60
2017-11-22T03:03:02.518Z,91.30
2017-11-22T03:05:30.065Z,90.80
2017-11-22T03:07:57.617Z,91.50
2017-11-22T03:10:25.167Z,91.60
2017-11-22T03:12:53.259Z,91.60
2017-11-22T03:15:20.813Z,91.10
2017-11-22T03:17:48.344Z,91.20
2017-11-22T03:20:16.608Z,91.10
2017-11-22T03:22:44.923Z,91.40
2017-11-22T03:25:13.188Z,91.30
2017-11-22T03:27:41.605Z,91.10
2017-11-22T03:30:09.159Z,90.90
2017-11-22T03:32:36.679Z,90.70
2017-11-22T03:35:04.246Z,90.60
2017-11-22T03:37:31.773Z,90.80
2017-11-22T03:39:59.391Z,90.60
2017-11-22T03:42:27.679Z,90.30
2017-11-22T03:44:55.255Z,90.20
2017-11-22T03:47:22.784Z,90.40
2017-11-22T03:49:56.712Z,90.50
2017-11-22T03:52:29.724Z,90.50
2017-11-22T03:54:57.279Z,92.10
2017-11-22T03:57:24.870Z,91.60
2017-11-22T03:59:52.410Z,91.10
2017-11-22T04:02:24.795Z,92.30
2017-11-22T04:04:54.269Z,91.30
2017-11-22T04:07:22.634Z,91.40
2017-11-22T04:09:50.243Z,91.40
2017-11-22T04:12:17.858Z,91.40
2017-11-22T04:14:45.356Z,91.50
2017-11-22T04:17:13.664Z,91.80
2017-11-22T04:19:56.088Z,91.80
2017-11-22T04:22:23.658Z,91.80
2017-11-22T04:24:51.174Z,91.60
2017-11-22T04:27:18.708Z,91.30
2017-11-22T04:29:46.261Z,91.40
2017-11-22T04:32:13.799Z,91.20
2017-11-22T04:34:41.927Z,92.20
2017-11-22T04:37:10.210Z,92.10
2017-11-22T04:39:38.480Z,92.40
2017-11-22T04:42:06.064Z,92.10
2017-11-22T04:44:34.458Z,91.70
2017-11-22T04:47:02.060Z,91.70
2017-11-22T04:49:29.624Z,91.60
2017-11-22T04:51:57.160Z,93.00
2017-11-22T04:54:25.525Z,92.60
2017-11-22T04:56:53.128Z,92.60
2017-11-22T04:59:20.655Z,92.80
2017-11-22T05:01:48.968Z,92.50
2017-11-22T05:04:16.509Z,92.30
2017-11-22T05:06:44.779Z,92.50
2017-11-22T05:09:12.325Z,92.40
2017-11-22T05:11:39.866Z,92.00
2017-11-22T05:14:07.469Z,91.60
2017-11-22T05:16:35.008Z,91.20
2017-11-22T05:19:02.568Z,91.20
2017-11-22T05:21:30.162Z,90.90
2017-11-22T05:23:58.528Z,90.60
2017-11-22T05:26:26.173Z,90.60
2017-11-22T05:28:53.736Z,90.90
2017-11-22T05:31:21.374Z,91.50
2017-11-22T05:33:49.679Z,91.60
2017-11-22T05:36:17.332Z,91.60
2017-11-22T05:38:44.841Z,92.50
2017-11-22T05:41:12.408Z,92.10
2017-11-22T05:43:39.915Z,92.10
2017-11-22T05:46:07.431Z,91.70
2017-11-22T05:48:34.978Z,91.10
2017-11-22T05:51:02.506Z,91.70
2017-11-22T05:53:30.004Z,91.70
2017-11-22T05:55:57.544Z,92.20
2017-11-22T05:58:25.541Z,91.70
2017-11-22T06:00:53.084Z,92.00
2017-11-22T06:03:20.714Z,91.90
2017-11-22T06:05:48.231Z,91.50
2017-11-22T06:08:15.785Z,91.40
2017-11-22T06:10:43.357Z,91.80
2017-11-22T06:13:10.867Z,91.60
2017-11-22T06:15:38.411Z,91.60
2017-11-22T06:18:06.039Z,91.40
2017-11-22T06:20:33.564Z,90.90
2017-11-22T06:23:01.134Z,90.80
2017-11-22T06:25:28.682Z,91.20
2017-11-22T06:27:56.216Z,91.60
2017-11-22T06:30:30.422Z,91.50
2017-11-22T06:32:57.941Z,92.00
2017-11-22T06:35:26.257Z,92.30
2017-11-22T06:37:53.950Z,92.20
2017-11-22T06:40:21.477Z,92.90
2017-11-22T06:42:49.874Z,93.50
2017-11-22T06:45:17.441Z,93.60
2017-11-22T06:47:45.027Z,93.50
2017-11-22T06:50:12.572Z,94.00
2017-11-22T06:52:40.106Z,93.10
2017-11-22T06:55:07.617Z,93.50
2017-11-22T06:57:35.175Z,93.10
2017-11-22T07:00:02.750Z,92.90
2017-11-22T07:02:35.776Z,92.80
2017-11-22T07:05:03.313Z,92.60
2017-11-22T07:07:30.893Z,92.60
2017-11-22T07:09:58.418Z,93.50
2017-11-22T07:12:26.096Z,95.20
2017-11-22T07:14:53.619Z,96.00
2017-11-22T07:17:27.578Z,96.70
2017-11-22T07:19:55.072Z,96.60
2017-11-22T07:22:22.599Z,95.60
2017-11-22T07:24:50.191Z,95.10
2017-11-22T07:27:17.732Z,94.30
2017-11-22T07:29:45.261Z,93.40
2017-11-22T07:32:12.815Z,92.60
2017-11-22T07:34:41.115Z,93.30
2017-11-22T07:37:14.246Z,93.30
2017-11-22T07:39:41.808Z,93.00
2017-11-22T07:42:09.369Z,92.30
2017-11-22T07:44:36.872Z,90.00
2017-11-22T07:47:10.869Z,88.30
2017-11-22T07:49:38.400Z,89.00
2017-11-22T07:52:11.462Z,89.10
2017-11-22T07:54:38.982Z,90.00
2017-11-22T07:57:06.569Z,90.40
2017-11-22T07:59:34.164Z,90.70
2017-11-22T08:02:01.729Z,91.30
2017-11-22T08:04:29.262Z,91.10
2017-11-22T08:06:57.621Z,91.50
2017-11-22T08:09:25.126Z,91.10
2017-11-22T08:11:53.488Z,91.90
2017-11-22T08:14:21.051Z,91.80
2017-11-22T08:16:49.362Z,92.40
2017-11-22T08:19:17.684Z,92.00
2017-11-22T08:21:45.222Z,91.90
2017-11-22T08:24:13.081Z,93.20
2017-11-22T08:26:40.632Z,94.90
2017-11-22T08:29:08.986Z,98.10
2017-11-22T08:31:36.483Z,98.00
2017-11-22T08:34:04.759Z,99.90
2017-11-22T08:36:32.327Z,99.90
2017-11-22T08:38:59.843Z,99.90
2017-11-22T08:41:27.361Z,99.90
2017-11-22T08:43:55.676Z,99.90
2017-11-22T08:46:23.214Z,99.90
2017-11-22T08:48:50.794Z,99.40
2017-11-22T08:51:18.292Z,95.20
2017-11-22T08:53:45.857Z,89.90
2017-11-22T08:56:19.120Z,89.10
2017-11-22T08:58:46.676Z,83.60
2017-11-22T09:01:14.223Z,75.20
2017-11-22T09:03:45.369Z,71.50
2017-11-22T09:06:19.297Z,68.70
2017-11-22T09:08:46.863Z,68.70
2017-11-22T09:11:14.366Z,63.10
2017-11-22T09:13:41.897Z,64.20
2017-11-22T09:16:09.432Z,63.70
2017-11-22T09:18:38.890Z,64.10
2017-11-22T09:21:10.393Z,64.00
2017-11-22T09:23:38.693Z,64.80
2017-11-22T09:26:06.220Z,64.90
2017-11-22T09:28:34.524Z,62.70
2017-11-22T09:31:07.755Z,62.60
2017-11-22T09:33:35.290Z,61.60
2017-11-22T09:36:02.857Z,57.50
2017-11-22T09:38:30.362Z,52.60
2017-11-22T09:40:57.855Z,51.50
2017-11-22T09:43:25.397Z,50.70
2017-11-22T09:45:52.959Z,48.40
2017-11-22T09:48:20.463Z,49.00
2017-11-22T09:50:48.781Z,47.70
2017-11-22T09:53:16.288Z,47.70
2017-11-22T09:55:43.825Z,44.70
2017-11-22T09:58:11.330Z,46.40
2017-11-22T10:00:39.631Z,45.60
2017-11-22T10:03:07.138Z,45.40
2017-11-22T10:05:34.703Z,46.50
2017-11-22T10:08:02.219Z,46.80
2017-11-22T10:10:30.494Z,46.00
2017-11-22T10:12:58.819Z,46.90
2017-11-22T10:15:26.342Z,46.80
2017-11-22T10:17:59.582Z,45.40
2017-11-22T10:20:27.113Z,43.30
2017-11-22T10:22:54.620Z,42.30
2017-11-22T10:25:22.167Z,43.90
2017-11-22T10:27:55.405Z,40.00
2017-11-22T10:30:28.707Z,40.90
2017-11-22T10:32:57.005Z,38.40
2017-11-22T10:35:24.522Z,38.30
2017-11-22T10:37:52.060Z,40.20
2017-11-22T10:40:19.623Z,38.10
2017-11-22T10:42:47.172Z,38.10
2017-11-22T10:45:14.745Z,38.20
2017-11-22T10:47:42.282Z,39.20
2017-11-22T10:50:09.793Z,39.40
2017-11-22T10:52:37.314Z,39.10
2017-11-22T10:55:04.823Z,37.30
2017-11-22T10:57:32.387Z,37.10
2017-11-22T10:59:59.958Z,35.30
2017-11-22T11:02:27.452Z,34.50
2017-11-22T11:04:54.999Z,36.10
2017-11-22T11:07:22.521Z,35.40
2017-11-22T11:09:50.057Z,37.00
2017-11-22T11:12:18.343Z,34.60
2017-11-22T11:14:46.648Z,33.90
2017-11-22T11:17:14.187Z,33.70
2017-11-22T11:19:42.481Z,33.50
2017-11-22T11:22:10.013Z,33.50
2017-11-22T11:24:37.635Z,33.40
2017-11-22T11:27:05.151Z,34.70
2017-11-22T11:29:32.658Z,34.10
2017-11-22T11:32:00.213Z,33.60
2017-11-22T11:34:27.828Z,33.80
2017-11-22T11:36:55.333Z,33.80
2017-11-22T11:39:22.911Z,32.00
2017-11-22T11:41:50.449Z,31.10
2017-11-22T11:44:18.768Z,30.50
2017-11-22T11:46:46.287Z,30.40
2017-11-22T11:49:13.836Z,31.60
2017-11-22T11:51:41.457Z,31.00
2017-11-22T11:54:08.967Z,32.70
2017-11-22T11:56:36.496Z,32.40
2017-11-22T11:59:04.007Z,32.00
2017-11-22T12:01:32.350Z,33.00
2017-11-22T12:03:59.865Z,32.50
2017-11-22T12:06:28.216Z,33.60
2017-11-22T12:08:55.720Z,33.50
2017-11-22T12:11:23.276Z,33.80
2017-11-22T12:13:50.872Z,33.90
2017-11-22T12:16:18.384Z,34.50
2017-11-22T12:18:45.931Z,33.90
2017-11-22T12:21:13.440Z,35.00
2017-11-22T12:23:41.709Z,34.80
2017-11-22T12:26:09.296Z,34.80
2017-11-22T12:28:36.859Z,34.50
2017-11-22T12:31:04.415Z,34.80
2017-11-22T12:33:31.983Z,34.20
2017-11-22T12:36:00.267Z,34.70
2017-11-22T12:38:27.823Z,34.70
2017-11-22T12:40:56.090Z,33.10
2017-11-22T12:43:23.608Z,33.10
2017-11-22T12:45:51.154Z,34.90
2017-11-22T12:48:18.714Z,33.50
2017-11-22T12:50:46.257Z,32.80
2017-11-22T12:53:13.780Z,33.10
2017-11-22T12:55:41.332Z,32.50
2017-11-22T12:58:12.645Z,30.80
2017-11-22T13:00:40.145Z,30.10
2017-11-22T13:03:07.639Z,29.40
2017-11-22T13:05:35.185Z,30.70
2017-11-22T13:08:02.738Z,30.00
2017-11-22T13:10:45.074Z,30.00
2017-11-22T13:13:12.754Z,30.40
2017-11-22T13:15:41.058Z,29.40
2017-11-22T13:18:08.585Z,29.40
2017-11-22T13:20:36.128Z,29.10
2017-11-22T13:23:03.689Z,29.20
2017-11-22T13:25:31.384Z,29.20
2017-11-22T13:27:58.901Z,27.20
2017-11-22T13:30:26.447Z,26.90
2017-11-22T13:32:54.006Z,26.80
2017-11-22T13:35:22.293Z,25.40
2017-11-22T13:37:49.829Z,25.40
2017-11-22T13:40:17.373Z,26.10
2017-11-22T13:42:46.841Z,26.80
2017-11-22T13:45:14.413Z,26.50
2017-11-22T13:47:41.940Z,25.50
2017-11-22T13:50:10.251Z,27.40
2017-11-22T13:52:37.807Z,27.40
2017-11-22T13:55:05.363Z,25.30
2017-11-22T13:57:32.896Z,26.10
2017-11-22T14:00:00.450Z,25.00
2017-11-22T14:02:27.969Z,24.50
2017-11-22T14:04:55.488Z,25.10
2017-11-22T14:07:23.053Z,24.10
2017-11-22T14:09:50.580Z,24.50
2017-11-22T14:12:18.132Z,24.30
2017-11-22T14:14:45.664Z,23.60
2017-11-22T14:17:13.198Z,24.20
2017-11-22T14:19:40.751Z,25.10
2017-11-22T14:22:08.256Z,25.20
2017-11-22T14:24:36.566Z,26.10
2017-11-22T14:27:04.133Z,26.10
2017-11-22T14:29:31.677Z,26.20
2017-11-22T14:32:00.040Z,27.00
2017-11-22T14:34:27.609Z,27.00
2017-11-22T14:36:55.156Z,27.90
2017-11-22T14:39:22.685Z,28.60
2017-11-22T14:41:50.223Z,28.10
2017-11-22T14:44:17.725Z,28.70
2017-11-22T14:46:45.279Z,28.60
2017-11-22T14:49:12.789Z,29.40
2017-11-22T14:51:40.379Z,28.90
2017-11-22T14:54:08.707Z,29.00
2017-11-22T14:56:36.231Z,29.00
2017-11-22T14:59:03.809Z,29.40
2017-11-22T15:01:31.338Z,29.60
2017-11-22T15:03:58.849Z,31.10
2017-11-22T15:06:26.438Z,32.20
2017-11-22T15:08:53.945Z,34.10
2017-11-22T15:11:22.270Z,36.90
2017-11-22T15:13:49.820Z,36.90
2017-11-22T15:16:17.359Z,37.90
2017-11-22T15:18:44.899Z,39.50
2017-11-22T15:21:12.413Z,42.10
2017-11-22T15:23:39.948Z,43.50
2017-11-22T15:26:08.242Z,48.20
2017-11-22T15:28:35.769Z,48.10
2017-11-22T15:31:03.366Z,50.40
2017-11-22T15:33:30.904Z,51.00
2017-11-22T15:35:58.443Z,51.30
2017-11-22T15:38:26.037Z,53.00
2017-11-22T15:40:53.576Z,53.70
2017-11-22T15:43:21.085Z,56.10
2017-11-22T15:45:49.388Z,58.00
2017-11-22T15:48:16.903Z,58.00
2017-11-22T15:50:44.426Z,59.10
2017-11-22T15:53:11.980Z,61.90
2017-11-22T15:55:39.494Z,63.70
2017-11-22T15:58:07.134Z,65.10
2017-11-22T16:00:34.711Z,66.00
2017-11-22T16:03:02.275Z,65.60
2017-11-22T16:05:29.791Z,65.00
2017-11-22T16:07:57.382Z,65.20
2017-11-22T16:10:24.914Z,65.30
2017-11-22T16:12:52.432Z,64.00
2017-11-22T16:15:23.946Z,64.30
2017-11-22T16:17:51.493Z,64.40
2017-11-22T16:20:19.794Z,66.30
2017-11-22T16:22:47.373Z,67.00
2017-11-22T16:25:14.959Z,66.90
2017-11-22T16:27:42.494Z,67.20
2017-11-22T16:30:10.081Z,67.20
2017-11-22T16:32:37.666Z,66.80
2017-11-22T16:35:05.287Z,66.50
2017-11-22T16:37:32.882Z,66.90
2017-11-22T16:40:00.407Z,67.40
2017-11-22T16:42:27.949Z,67.10
2017-11-22T16:44:55.542Z,67.30
2017-11-22T16:47:23.071Z,67.00
2017-11-22T16:49:50.630Z,67.20
2017-11-22T16:52:18.207Z,68.10
2017-11-22T16:54:45.789Z,68.00
2017-11-22T16:57:13.350Z,67.50
2017-11-22T16:59:40.881Z,68.60
2017-11-22T17:02:09.021Z,68.70
2017-11-22T17:04:36.606Z,68.80
2017-11-22T17:07:04.143Z,70.20
2017-11-22T17:09:31.734Z,70.10
2017-11-22T17:11:59.288Z,72.40
2017-11-22T17:14:26.836Z,73.20
2017-11-22T17:16:54.443Z,72.10
2017-11-22T17:19:21.983Z,72.10
2017-11-22T17:21:49.666Z,72.00
2017-11-22T17:24:17.244Z,71.60
2017-11-22T17:26:50.739Z,71.60
2017-11-22T17:29:18.308Z,71.50
2017-11-22T17:31:50.068Z,71.60
2017-11-22T17:34:17.632Z,70.90
2017-11-22T17:36:45.136Z,70.00
2017-11-22T17:39:13.504Z,70.00
2017-11-22T17:41:41.779Z,70.30
2017-11-22T17:44:09.313Z,70.20
2017-11-22T17:46:36.935Z,70.90
2017-11-22T17:49:05.226Z,69.80
2017-11-22T17:51:32.885Z,69.80
2017-11-22T17:54:01.171Z,68.70
2017-11-22T17:56:29.458Z,68.60
2017-11-22T17:58:57.020Z,69.20
2017-11-22T18:01:24.575Z,68.70
2017-11-22T18:03:52.136Z,67.80
2017-11-22T18:06:24.655Z,67.20
2017-11-22T18:08:52.233Z,67.10
2017-11-22T18:11:19.855Z,67.30
2017-11-22T18:13:48.157Z,66.10
2017-11-22T18:16:24.143Z,66.00
2017-11-22T18:18:51.678Z,66.50
2017-11-22T18:21:19.218Z,65.60
2017-11-22T18:23:47.568Z,66.70
2017-11-22T18:26:15.102Z,66.60
2017-11-22T18:28:42.732Z,67.60
2017-11-22T18:31:10.276Z,67.60
2017-11-22T18:33:37.822Z,67.30
2017-11-22T18:36:05.364Z,67.00
2017-11-22T18:38:32.926Z,66.80
2017-11-22T18:41:00.510Z,65.60
2017-11-22T18:43:28.037Z,65.30
2017-11-22T18:45:55.599Z,65.20
2017-11-22T18:48:23.208Z,65.30
2017-11-22T18:50:50.815Z,65.00
2017-11-22T18:53:18.363Z,65.20
2017-11-22T18:55:46.686Z,64.90
2017-11-22T18:58:14.226Z,64.80
2017-11-22T19:00:42.600Z,64.80
2017-11-22T19:03:10.120Z,64.80
2017-11-22T19:05:37.661Z,64.40
2017-11-22T19:08:05.202Z,64.30
2017-11-22T19:10:33.477Z,64.60
2017-11-22T19:13:01.038Z,64.60
2017-11-22T19:15:29.514Z,65.00
2017-11-22T19:17:57.813Z,67.00
2017-11-22T19:20:25.375Z,67.00
2017-11-22T19:22:53.696Z,67.60
2017-11-22T19:25:21.208Z,67.60
2017-11-22T19:27:48.785Z,68.20
2017-11-22T19:30:17.114Z,69.10
2017-11-22T19:32:44.670Z,69.10
2017-11-22T19:35:13.754Z,68.90
2017-11-22T19:37:44.039Z,69.30
2017-11-22T19:40:12.828Z,68.70
2017-11-22T19:42:40.392Z,68.50
2017-11-22T19:45:07.936Z,69.70
2017-11-22T19:47:35.496Z,71.30
2017-11-22T19:50:03.022Z,72.60
2017-11-22T19:52:30.589Z,73.80
2017-11-22T19:55:09.659Z,74.30
2017-11-22T19:57:46.211Z,74.90
2017-11-22T20:00:13.774Z,76.90
2017-11-22T20:02:42.102Z,78.70
2017-11-22T20:05:09.705Z,78.70
2017-11-22T20:07:47.782Z,79.00
2017-11-22T20:10:17.543Z,79.40
2017-11-22T20:12:45.099Z,79.40
2017-11-22T20:15:15.453Z,80.20
2017-11-22T20:17:42.997Z,80.10
2017-11-22T20:20:10.500Z,80.40
2017-11-22T20:22:38.186Z,80.40
2017-11-22T20:25:10.146Z,80.00
2017-11-22T20:27:38.457Z,81.10
2017-11-22T20:30:14.611Z,80.90
2017-11-22T20:32:42.165Z,81.30
2017-11-22T20:35:10.450Z,83.10
2017-11-22T20:37:43.409Z,82.90
2017-11-22T20:40:10.922Z,83.90
2017-11-22T20:42:38.453Z,84.40
2017-11-22T20:45:06.774Z,84.70
2017-11-22T20:47:38.419Z,84.60
2017-11-22T20:50:05.995Z,85.00
2017-11-22T20:52:35.815Z,84.50
2017-11-22T20:55:06.302Z,84.90
2017-11-22T20:57:34.630Z,85.30
2017-11-22T21:00:02.160Z,85.20
2017-11-22T21:02:30.574Z,85.30
2017-11-22T21:04:58.123Z,85.20
2017-11-22T21:07:26.479Z,86.90
2017-11-22T21:09:54.020Z,86.80
2017-11-22T21:12:21.601Z,86.90
2017-11-22T21:14:49.127Z,87.30
2017-11-22T21:17:16.698Z,87.10
2017-11-22T21:19:44.221Z,87.20
2017-11-22T21:22:12.555Z,87.50
2017-11-22T21:24:40.238Z,87.40
2017-11-22T21:27:07.795Z,87.70
2017-11-22T21:29:35.364Z,87.70
2017-11-22T21:32:02.939Z,87.00
2017-11-22T21:34:30.491Z,86.80
2017-11-22T21:36:58.013Z,86.60
2017-11-22T21:39:25.603Z,87.70
2017-11-22T21:41:53.543Z,88.00
2017-11-22T21:44:21.038Z,88.10
2017-11-22T21:46:48.578Z,87.90
2017-11-22T21:49:16.064Z,87.80
2017-11-22T21:51:43.618Z,87.70
2017-11-22T21:54:11.163Z,87.50
2017-11-22T21:56:38.730Z,88.50
2017-11-22T21:59:06.244Z,88.10
2017-11-22T22:01:33.843Z,88.60
2017-11-22T22:04:01.458Z,89.20
2017-11-22T22:06:28.968Z,88.80
2017-11-22T22:08:57.292Z,88.90
2017-11-22T22:11:24.834Z,88.00
2017-11-22T22:13:52.431Z,88.00
2017-11-22T22:16:20.011Z,87.80
2017-11-22T22:18:47.555Z,87.70
2017-11-22T22:21:15.059Z,88.10
2017-11-22T22:23:42.590Z,89.70
2017-11-22T22:26:10.191Z,90.40
2017-11-22T22:28:37.754Z,88.80
2017-11-22T22:31:05.318Z,89.20
2017-11-22T22:33:32.857Z,89.30
2017-11-22T22:36:00.420Z,89.50
2017-11-22T22:38:27.964Z,89.50
2017-11-22T22:40:55.542Z,90.10
2017-11-22T22:43:23.113Z,89.70
2017-11-22T22:45:50.635Z,90.40
2017-11-22T22:48:18.385Z,89.90
2017-11-22T22:50:46.026Z,89.30
2017-11-22T22:53:13.558Z,89.50
2017-11-22T22:55:41.153Z,89.40
2017-11-22T22:58:08.686Z,88.90
2017-11-22T23:00:36.273Z,88.50
2017-11-22T23:03:03.786Z,87.90
2017-11-22T23:05:31.334Z,88.60
2017-11-22T23:07:58.844Z,89.30
2017-11-22T23:10:26.364Z,89.30
2017-11-22T23:12:53.876Z,89.30
2017-11-22T23:15:21.392Z,89.50
2017-11-22T23:17:48.923Z,89.70
2017-11-22T23:20:16.401Z,89.80
2017-11-22T23:22:43.949Z,89.20
2017-11-22T23:25:11.501Z,89.20
2017-11-22T23:27:39.024Z,90.00
2017-11-22T23:30:06.628Z,89.80
2017-11-22T23:32:34.155Z,90.50
2017-11-22T23:35:02.453Z,90.20
2017-11-22T23:37:29.970Z,90.00
2017-11-22T23:39:57.448Z,89.90
2017-11-22T23:42:24.989Z,90.60
2017-11-22T23:44:52.524Z,91.20
2017-11-22T23:47:20.348Z,89.40
2017-11-22T23:49:47.851Z,89.10
2017-11-22T23:52:15.591Z,89.00
2017-11-22T23:54:43.896Z,89.70
2017-11-22T23:57:11.416Z,89.60
2017-11-22T23:59:38.957Z,89.30
